sensor_id;sensor_type;location;lat;lon;timestamp;temperature;humidity
49829;DHT22;35723;51.194;5.112;2022-07-23T00:00:15;18.80;99.90
49829;DHT22;35723;51.194;5.112;2022-07-23T00:02:41;18.90;99.90
49829;DHT22;35723;51.194;5.112;2022-07-23T00:05:07;18.90;99.90
49829;DHT22;35723;51.194;5.112;2022-07-23T00:07:32;19.00;99.90
49829;DHT22;35723;51.194;5.112;2022-07-23T00:09:58;19.00;99.90
49829;DHT22;35723;51.194;5.112;2022-07-23T00:12:24;18.90;99.90
49829;DHT22;35723;51.194;5.112;2022-07-23T00:14:49;18.90;99.90
49829;DHT22;35723;51.194;5.112;2022-07-23T00:17:15;18.90;99.90
49829;DHT22;35723;51.194;5.112;2022-07-23T00:19:41;18.90;99.90
49829;DHT22;35723;51.194;5.112;2022-07-23T00:22:06;18.90;99.90
49829;DHT22;35723;51.194;5.112;2022-07-23T00:24:32;18.90;99.90
49829;DHT22;35723;51.194;5.112;2022-07-23T00:26:57;18.90;99.90
49829;DHT22;35723;51.194;5.112;2022-07-23T00:29:23;18.80;99.90
49829;DHT22;35723;51.194;5.112;2022-07-23T00:31:49;18.80;99.90
49829;DHT22;35723;51.194;5.112;2022-07-23T00:34:14;18.90;99.90
49829;DHT22;35723;51.194;5.112;2022-07-23T00:36:40;18.90;99.90
49829;DHT22;35723;51.194;5.112;2022-07-23T00:39:06;19.00;99.90
49829;DHT22;35723;51.194;5.112;2022-07-23T00:41:32;19.00;99.90
49829;DHT22;35723;51.194;5.112;2022-07-23T00:44:19;19.00;99.90
49829;DHT22;35723;51.194;5.112;2022-07-23T00:46:47;19.00;99.90
49829;DHT22;35723;51.194;5.112;2022-07-23T00:49:14;18.90;99.90
49829;DHT22;35723;51.194;5.112;2022-07-23T00:51:40;18.90;99.90
49829;DHT22;35723;51.194;5.112;2022-07-23T00:54:05;18.80;99.90
49829;DHT22;35723;51.194;5.112;2022-07-23T00:56:32;18.80;99.90
49829;DHT22;35723;51.194;5.112;2022-07-23T00:59:00;18.50;99.90
49829;DHT22;35723;51.194;5.112;2022-07-23T01:01:26;18.40;99.90
49829;DHT22;35723;51.194;5.112;2022-07-23T01:03:52;18.40;99.90
49829;DHT22;35723;51.194;5.112;2022-07-23T01:06:17;18.40;99.90
49829;DHT22;35723;51.194;5.112;2022-07-23T01:08:43;18.30;99.90
49829;DHT22;35723;51.194;5.112;2022-07-23T01:11:08;18.30;99.90
49829;DHT22;35723;51.194;5.112;2022-07-23T01:13:34;18.30;99.90
49829;DHT22;35723;51.194;5.112;2022-07-23T01:16:00;18.20;99.90
49829;DHT22;35723;51.194;5.112;2022-07-23T01:18:26;18.20;99.90
49829;DHT22;35723;51.194;5.112;2022-07-23T01:20:51;18.10;99.90
49829;DHT22;35723;51.194;5.112;2022-07-23T01:23:17;18.00;99.90
49829;DHT22;35723;51.194;5.112;2022-07-23T01:25:52;18.00;99.90
49829;DHT22;35723;51.194;5.112;2022-07-23T01:28:17;18.10;99.90
49829;DHT22;35723;51.194;5.112;2022-07-23T01:30:43;18.00;99.90
49829;DHT22;35723;51.194;5.112;2022-07-23T01:33:09;18.00;99.90
49829;DHT22;35723;51.194;5.112;2022-07-23T01:35:35;18.10;99.90
49829;DHT22;35723;51.194;5.112;2022-07-23T01:38:00;18.10;99.90
49829;DHT22;35723;51.194;5.112;2022-07-23T01:40:26;18.10;99.90
49829;DHT22;35723;51.194;5.112;2022-07-23T01:42:51;18.10;99.90
49829;DHT22;35723;51.194;5.112;2022-07-23T01:45:17;18.00;99.90
49829;DHT22;35723;51.194;5.112;2022-07-23T01:47:43;18.00;99.90
49829;DHT22;35723;51.194;5.112;2022-07-23T01:50:09;18.00;99.90
49829;DHT22;35723;51.194;5.112;2022-07-23T01:52:35;18.00;99.90
49829;DHT22;35723;51.194;5.112;2022-07-23T01:55:00;17.90;99.90
49829;DHT22;35723;51.194;5.112;2022-07-23T01:57:26;18.00;99.90
49829;DHT22;35723;51.194;5.112;2022-07-23T01:59:52;17.90;99.90
49829;DHT22;35723;51.194;5.112;2022-07-23T02:02:17;17.90;99.90
49829;DHT22;35723;51.194;5.112;2022-07-23T02:04:43;18.00;99.90
49829;DHT22;35723;51.194;5.112;2022-07-23T02:07:08;17.90;99.90
49829;DHT22;35723;51.194;5.112;2022-07-23T02:09:34;17.80;99.90
49829;DHT22;35723;51.194;5.112;2022-07-23T02:12:00;17.80;99.90
49829;DHT22;35723;51.194;5.112;2022-07-23T02:14:26;17.60;99.90
49829;DHT22;35723;51.194;5.112;2022-07-23T02:16:52;17.60;99.90
49829;DHT22;35723;51.194;5.112;2022-07-23T02:19:18;17.60;99.90
49829;DHT22;35723;51.194;5.112;2022-07-23T02:21:43;17.60;99.90
49829;DHT22;35723;51.194;5.112;2022-07-23T02:24:09;17.60;99.90
49829;DHT22;35723;51.194;5.112;2022-07-23T02:26:35;17.50;99.90
49829;DHT22;35723;51.194;5.112;2022-07-23T02:29:04;17.50;99.90
49829;DHT22;35723;51.194;5.112;2022-07-23T02:31:30;17.60;99.90
49829;DHT22;35723;51.194;5.112;2022-07-23T02:33:56;17.70;99.90
49829;DHT22;35723;51.194;5.112;2022-07-23T02:36:22;17.70;99.90
49829;DHT22;35723;51.194;5.112;2022-07-23T02:38:48;17.70;99.90
49829;DHT22;35723;51.194;5.112;2022-07-23T02:41:13;17.60;99.90
49829;DHT22;35723;51.194;5.112;2022-07-23T02:43:39;17.60;99.90
49829;DHT22;35723;51.194;5.112;2022-07-23T02:46:05;17.50;99.90
49829;DHT22;35723;51.194;5.112;2022-07-23T02:48:30;17.50;99.90
49829;DHT22;35723;51.194;5.112;2022-07-23T02:50:56;17.60;99.90
49829;DHT22;35723;51.194;5.112;2022-07-23T02:53:22;17.50;99.90
49829;DHT22;35723;51.194;5.112;2022-07-23T02:55:48;17.40;99.90
49829;DHT22;35723;51.194;5.112;2022-07-23T02:58:14;17.30;99.90
49829;DHT22;35723;51.194;5.112;2022-07-23T03:00:40;17.30;99.90
49829;DHT22;35723;51.194;5.112;2022-07-23T03:03:05;17.20;99.90
49829;DHT22;35723;51.194;5.112;2022-07-23T03:05:33;17.20;99.90
49829;DHT22;35723;51.194;5.112;2022-07-23T03:07:59;17.40;99.90
49829;DHT22;35723;51.194;5.112;2022-07-23T03:10:24;17.40;99.90
49829;DHT22;35723;51.194;5.112;2022-07-23T03:12:50;17.30;99.90
49829;DHT22;35723;51.194;5.112;2022-07-23T03:15:16;17.40;99.90
49829;DHT22;35723;51.194;5.112;2022-07-23T03:17:42;17.50;99.90
49829;DHT22;35723;51.194;5.112;2022-07-23T03:20:08;17.60;99.90
49829;DHT22;35723;51.194;5.112;2022-07-23T03:22:34;17.50;99.90
49829;DHT22;35723;51.194;5.112;2022-07-23T03:24:59;17.30;99.90
49829;DHT22;35723;51.194;5.112;2022-07-23T03:27:27;17.20;99.90
49829;DHT22;35723;51.194;5.112;2022-07-23T03:29:55;17.10;99.90
49829;DHT22;35723;51.194;5.112;2022-07-23T03:32:21;17.10;99.90
49829;DHT22;35723;51.194;5.112;2022-07-23T03:34:47;17.20;99.90
49829;DHT22;35723;51.194;5.112;2022-07-23T03:37:13;17.00;99.90
49829;DHT22;35723;51.194;5.112;2022-07-23T03:39:38;16.90;99.90
49829;DHT22;35723;51.194;5.112;2022-07-23T03:42:04;16.80;99.90
49829;DHT22;35723;51.194;5.112;2022-07-23T03:44:30;16.80;99.90
49829;DHT22;35723;51.194;5.112;2022-07-23T03:46:55;16.80;99.90
49829;DHT22;35723;51.194;5.112;2022-07-23T03:49:21;16.90;99.90
49829;DHT22;35723;51.194;5.112;2022-07-23T03:51:47;16.90;99.90
49829;DHT22;35723;51.194;5.112;2022-07-23T03:54:13;17.00;99.90
49829;DHT22;35723;51.194;5.112;2022-07-23T03:56:38;17.00;99.90
49829;DHT22;35723;51.194;5.112;2022-07-23T03:59:04;17.00;99.90
49829;DHT22;35723;51.194;5.112;2022-07-23T04:01:30;17.00;99.90
49829;DHT22;35723;51.194;5.112;2022-07-23T04:03:55;17.10;99.90
49829;DHT22;35723;51.194;5.112;2022-07-23T04:06:21;17.10;99.90
49829;DHT22;35723;51.194;5.112;2022-07-23T04:08:47;17.00;99.90
49829;DHT22;35723;51.194;5.112;2022-07-23T04:11:12;17.00;99.90
49829;DHT22;35723;51.194;5.112;2022-07-23T04:13:38;17.00;99.90
49829;DHT22;35723;51.194;5.112;2022-07-23T04:16:04;17.10;99.90
49829;DHT22;35723;51.194;5.112;2022-07-23T04:18:30;17.10;99.90
49829;DHT22;35723;51.194;5.112;2022-07-23T04:20:55;17.10;99.90
49829;DHT22;35723;51.194;5.112;2022-07-23T04:23:21;17.20;99.90
49829;DHT22;35723;51.194;5.112;2022-07-23T04:25:47;17.30;99.90
49829;DHT22;35723;51.194;5.112;2022-07-23T04:28:12;17.20;99.90
49829;DHT22;35723;51.194;5.112;2022-07-23T04:30:38;17.20;99.90
49829;DHT22;35723;51.194;5.112;2022-07-23T04:33:04;17.10;99.90
49829;DHT22;35723;51.194;5.112;2022-07-23T04:35:35;17.20;99.90
49829;DHT22;35723;51.194;5.112;2022-07-23T04:38:02;17.10;99.90
49829;DHT22;35723;51.194;5.112;2022-07-23T04:40:28;17.10;99.90
49829;DHT22;35723;51.194;5.112;2022-07-23T04:42:53;17.10;99.90
49829;DHT22;35723;51.194;5.112;2022-07-23T04:45:19;17.10;99.90
49829;DHT22;35723;51.194;5.112;2022-07-23T04:47:45;17.10;99.90
49829;DHT22;35723;51.194;5.112;2022-07-23T04:50:11;17.10;99.90
49829;DHT22;35723;51.194;5.112;2022-07-23T04:52:36;17.10;99.90
49829;DHT22;35723;51.194;5.112;2022-07-23T04:55:02;17.10;99.90
49829;DHT22;35723;51.194;5.112;2022-07-23T04:57:28;17.10;99.90
49829;DHT22;35723;51.194;5.112;2022-07-23T04:59:54;17.10;99.90
49829;DHT22;35723;51.194;5.112;2022-07-23T05:02:19;17.00;99.90
49829;DHT22;35723;51.194;5.112;2022-07-23T05:04:45;17.00;99.90
49829;DHT22;35723;51.194;5.112;2022-07-23T05:07:10;17.00;99.90
49829;DHT22;35723;51.194;5.112;2022-07-23T05:09:36;16.80;99.90
49829;DHT22;35723;51.194;5.112;2022-07-23T05:12:02;16.80;99.90
49829;DHT22;35723;51.194;5.112;2022-07-23T05:14:28;16.70;99.90
49829;DHT22;35723;51.194;5.112;2022-07-23T05:16:54;16.70;99.90
49829;DHT22;35723;51.194;5.112;2022-07-23T05:19:20;16.80;99.90
49829;DHT22;35723;51.194;5.112;2022-07-23T05:21:46;16.80;99.90
49829;DHT22;35723;51.194;5.112;2022-07-23T05:24:11;16.90;99.90
49829;DHT22;35723;51.194;5.112;2022-07-23T05:26:37;16.80;99.90
49829;DHT22;35723;51.194;5.112;2022-07-23T05:29:03;16.80;99.90
49829;DHT22;35723;51.194;5.112;2022-07-23T05:31:29;16.70;99.90
49829;DHT22;35723;51.194;5.112;2022-07-23T05:33:54;16.80;99.90
49829;DHT22;35723;51.194;5.112;2022-07-23T05:36:20;16.80;99.90
49829;DHT22;35723;51.194;5.112;2022-07-23T05:38:45;16.70;99.90
49829;DHT22;35723;51.194;5.112;2022-07-23T05:41:11;16.70;99.90
49829;DHT22;35723;51.194;5.112;2022-07-23T05:43:37;16.70;99.90
49829;DHT22;35723;51.194;5.112;2022-07-23T05:46:02;16.60;99.90
49829;DHT22;35723;51.194;5.112;2022-07-23T05:48:28;16.60;99.90
49829;DHT22;35723;51.194;5.112;2022-07-23T05:50:53;16.70;99.90
49829;DHT22;35723;51.194;5.112;2022-07-23T05:53:19;16.80;99.90
49829;DHT22;35723;51.194;5.112;2022-07-23T05:55:45;16.90;99.90
49829;DHT22;35723;51.194;5.112;2022-07-23T05:58:10;16.90;99.90
49829;DHT22;35723;51.194;5.112;2022-07-23T06:00:36;16.70;99.90
49829;DHT22;35723;51.194;5.112;2022-07-23T06:03:02;16.80;99.90
49829;DHT22;35723;51.194;5.112;2022-07-23T06:05:27;16.80;99.90
49829;DHT22;35723;51.194;5.112;2022-07-23T06:07:53;16.80;99.90
49829;DHT22;35723;51.194;5.112;2022-07-23T06:10:19;17.00;99.90
49829;DHT22;35723;51.194;5.112;2022-07-23T06:12:45;17.10;99.90
49829;DHT22;35723;51.194;5.112;2022-07-23T06:15:11;17.10;99.90
49829;DHT22;35723;51.194;5.112;2022-07-23T06:17:37;17.10;99.90
49829;DHT22;35723;51.194;5.112;2022-07-23T06:20:08;17.00;99.90
49829;DHT22;35723;51.194;5.112;2022-07-23T06:22:35;17.10;99.90
49829;DHT22;35723;51.194;5.112;2022-07-23T06:25:01;17.20;99.90
49829;DHT22;35723;51.194;5.112;2022-07-23T06:27:26;17.20;99.90
49829;DHT22;35723;51.194;5.112;2022-07-23T06:29:52;17.30;99.90
49829;DHT22;35723;51.194;5.112;2022-07-23T06:32:18;17.50;99.90
49829;DHT22;35723;51.194;5.112;2022-07-23T06:34:43;17.50;99.90
49829;DHT22;35723;51.194;5.112;2022-07-23T06:37:09;17.50;99.90
49829;DHT22;35723;51.194;5.112;2022-07-23T06:39:34;17.50;99.90
49829;DHT22;35723;51.194;5.112;2022-07-23T06:42:00;17.40;99.90
49829;DHT22;35723;51.194;5.112;2022-07-23T06:44:26;17.40;99.90
49829;DHT22;35723;51.194;5.112;2022-07-23T06:46:52;17.50;99.90
49829;DHT22;35723;51.194;5.112;2022-07-23T06:49:18;17.60;99.90
49829;DHT22;35723;51.194;5.112;2022-07-23T06:51:44;17.60;99.90
49829;DHT22;35723;51.194;5.112;2022-07-23T06:54:09;17.90;99.90
49829;DHT22;35723;51.194;5.112;2022-07-23T06:56:35;18.00;99.90
49829;DHT22;35723;51.194;5.112;2022-07-23T06:59:01;17.90;99.90
49829;DHT22;35723;51.194;5.112;2022-07-23T07:01:26;17.90;99.90
49829;DHT22;35723;51.194;5.112;2022-07-23T07:03:52;18.00;99.90
49829;DHT22;35723;51.194;5.112;2022-07-23T07:06:18;18.20;99.90
49829;DHT22;35723;51.194;5.112;2022-07-23T07:08:43;18.40;99.90
49829;DHT22;35723;51.194;5.112;2022-07-23T07:11:09;18.50;99.90
49829;DHT22;35723;51.194;5.112;2022-07-23T07:13:36;18.30;99.90
49829;DHT22;35723;51.194;5.112;2022-07-23T07:16:02;18.30;99.90
49829;DHT22;35723;51.194;5.112;2022-07-23T07:18:28;18.50;99.90
49829;DHT22;35723;51.194;5.112;2022-07-23T07:20:53;18.60;99.90
49829;DHT22;35723;51.194;5.112;2022-07-23T07:23:19;18.70;99.90
49829;DHT22;35723;51.194;5.112;2022-07-23T07:25:46;18.70;99.90
49829;DHT22;35723;51.194;5.112;2022-07-23T07:28:12;18.80;99.90
49829;DHT22;35723;51.194;5.112;2022-07-23T07:30:38;18.70;99.90
49829;DHT22;35723;51.194;5.112;2022-07-23T07:33:03;18.80;99.90
49829;DHT22;35723;51.194;5.112;2022-07-23T07:35:29;18.80;99.90
49829;DHT22;35723;51.194;5.112;2022-07-23T07:37:56;19.10;99.90
49829;DHT22;35723;51.194;5.112;2022-07-23T07:40:22;19.10;99.90
49829;DHT22;35723;51.194;5.112;2022-07-23T07:42:49;19.10;99.90
49829;DHT22;35723;51.194;5.112;2022-07-23T07:45:15;19.10;99.90
49829;DHT22;35723;51.194;5.112;2022-07-23T07:47:41;19.00;99.90
49829;DHT22;35723;51.194;5.112;2022-07-23T07:50:07;19.00;99.90
49829;DHT22;35723;51.194;5.112;2022-07-23T07:52:35;18.90;99.90
49829;DHT22;35723;51.194;5.112;2022-07-23T07:55:03;18.90;99.90
49829;DHT22;35723;51.194;5.112;2022-07-23T07:57:29;19.10;99.90
49829;DHT22;35723;51.194;5.112;2022-07-23T07:59:54;19.20;99.90
49829;DHT22;35723;51.194;5.112;2022-07-23T08:02:20;19.20;99.90
49829;DHT22;35723;51.194;5.112;2022-07-23T08:04:45;19.30;99.90
49829;DHT22;35723;51.194;5.112;2022-07-23T08:07:11;19.60;99.90
49829;DHT22;35723;51.194;5.112;2022-07-23T08:09:37;19.50;99.90
49829;DHT22;35723;51.194;5.112;2022-07-23T08:12:02;19.30;99.90
49829;DHT22;35723;51.194;5.112;2022-07-23T08:14:28;19.20;99.90
49829;DHT22;35723;51.194;5.112;2022-07-23T08:16:54;19.30;99.90
49829;DHT22;35723;51.194;5.112;2022-07-23T08:19:19;19.40;99.90
49829;DHT22;35723;51.194;5.112;2022-07-23T08:21:45;19.30;99.90
49829;DHT22;35723;51.194;5.112;2022-07-23T08:24:10;19.20;99.90
49829;DHT22;35723;51.194;5.112;2022-07-23T08:26:36;19.30;99.90
49829;DHT22;35723;51.194;5.112;2022-07-23T08:29:02;19.40;99.90
49829;DHT22;35723;51.194;5.112;2022-07-23T08:31:27;19.40;99.90
49829;DHT22;35723;51.194;5.112;2022-07-23T08:33:53;19.50;99.90
49829;DHT22;35723;51.194;5.112;2022-07-23T08:36:19;19.40;99.90
49829;DHT22;35723;51.194;5.112;2022-07-23T08:38:45;19.50;99.90
49829;DHT22;35723;51.194;5.112;2022-07-23T08:41:10;19.50;99.90
49829;DHT22;35723;51.194;5.112;2022-07-23T08:43:36;19.60;99.90
49829;DHT22;35723;51.194;5.112;2022-07-23T08:46:02;19.80;99.90
49829;DHT22;35723;51.194;5.112;2022-07-23T08:48:31;19.80;99.90
49829;DHT22;35723;51.194;5.112;2022-07-23T08:50:59;19.90;99.90
49829;DHT22;35723;51.194;5.112;2022-07-23T08:53:26;20.00;99.90
49829;DHT22;35723;51.194;5.112;2022-07-23T08:55:55;20.20;99.90
49829;DHT22;35723;51.194;5.112;2022-07-23T08:58:21;20.20;99.90
49829;DHT22;35723;51.194;5.112;2022-07-23T09:00:48;20.30;99.90
49829;DHT22;35723;51.194;5.112;2022-07-23T09:03:23;20.30;99.90
49829;DHT22;35723;51.194;5.112;2022-07-23T09:05:50;20.40;99.90
49829;DHT22;35723;51.194;5.112;2022-07-23T09:08:18;20.60;99.90
49829;DHT22;35723;51.194;5.112;2022-07-23T09:11:00;20.80;99.90
49829;DHT22;35723;51.194;5.112;2022-07-23T09:13:33;21.10;99.90
49829;DHT22;35723;51.194;5.112;2022-07-23T09:16:14;21.40;99.90
49829;DHT22;35723;51.194;5.112;2022-07-23T09:18:46;21.40;99.90
49829;DHT22;35723;51.194;5.112;2022-07-23T09:21:28;21.40;99.90
49829;DHT22;35723;51.194;5.112;2022-07-23T09:24:08;21.50;99.90
49829;DHT22;35723;51.194;5.112;2022-07-23T09:29:13;21.60;99.90
49829;DHT22;35723;51.194;5.112;2022-07-23T09:31:51;21.70;99.90
49829;DHT22;35723;51.194;5.112;2022-07-23T09:36:47;21.70;99.90
49829;DHT22;35723;51.194;5.112;2022-07-23T09:39:15;21.90;99.90
49829;DHT22;35723;51.194;5.112;2022-07-23T09:41:45;22.30;99.90
49829;DHT22;35723;51.194;5.112;2022-07-23T09:44:18;22.60;99.90
49829;DHT22;35723;51.194;5.112;2022-07-23T09:46:49;22.50;99.90
49829;DHT22;35723;51.194;5.112;2022-07-23T09:49:22;22.40;99.90
49829;DHT22;35723;51.194;5.112;2022-07-23T09:51:59;21.90;99.90
49829;DHT22;35723;51.194;5.112;2022-07-23T09:57:18;22.20;99.90
49829;DHT22;35723;51.194;5.112;2022-07-23T09:59:46;22.50;99.90
49829;DHT22;35723;51.194;5.112;2022-07-23T10:02:13;22.70;99.90
49829;DHT22;35723;51.194;5.112;2022-07-23T10:04:40;22.90;99.90
49829;DHT22;35723;51.194;5.112;2022-07-23T10:07:08;23.30;99.90
49829;DHT22;35723;51.194;5.112;2022-07-23T10:09:38;23.70;99.90
49829;DHT22;35723;51.194;5.112;2022-07-23T10:12:10;24.30;99.90
49829;DHT22;35723;51.194;5.112;2022-07-23T10:14:39;24.50;99.90
49829;DHT22;35723;51.194;5.112;2022-07-23T10:17:06;24.60;99.90
49829;DHT22;35723;51.194;5.112;2022-07-23T10:19:32;24.30;99.90
49829;DHT22;35723;51.194;5.112;2022-07-23T10:22:03;23.80;99.90
49829;DHT22;35723;51.194;5.112;2022-07-23T10:24:48;23.80;99.90
49829;DHT22;35723;51.194;5.112;2022-07-23T10:30:11;24.10;99.90
49829;DHT22;35723;51.194;5.112;2022-07-23T10:32:50;24.00;99.90
49829;DHT22;35723;51.194;5.112;2022-07-23T10:41:00;24.30;99.90
49829;DHT22;35723;51.194;5.112;2022-07-23T10:43:27;24.30;99.90
49829;DHT22;35723;51.194;5.112;2022-07-23T10:45:54;24.20;99.90
49829;DHT22;35723;51.194;5.112;2022-07-23T10:51:22;24.30;99.90
49829;DHT22;35723;51.194;5.112;2022-07-23T10:56:15;24.90;99.90
49829;DHT22;35723;51.194;5.112;2022-07-23T10:58:50;24.40;99.90
49829;DHT22;35723;51.194;5.112;2022-07-23T11:01:36;24.20;99.90
49829;DHT22;35723;51.194;5.112;2022-07-23T11:04:03;24.30;99.60
49829;DHT22;35723;51.194;5.112;2022-07-23T11:09:30;24.60;97.70
49829;DHT22;35723;51.194;5.112;2022-07-23T11:17:32;24.90;96.50
49829;DHT22;35723;51.194;5.112;2022-07-23T11:27:49;25.30;96.90
49829;DHT22;35723;51.194;5.112;2022-07-23T11:35:46;24.90;96.00
49829;DHT22;35723;51.194;5.112;2022-07-23T11:38:22;25.10;96.50
49829;DHT22;35723;51.194;5.112;2022-07-23T11:40:53;25.00;96.80
49829;DHT22;35723;51.194;5.112;2022-07-23T11:43:20;25.00;96.50
49829;DHT22;35723;51.194;5.112;2022-07-23T11:45:48;25.30;97.00
49829;DHT22;35723;51.194;5.112;2022-07-23T11:48:24;25.60;96.40
49829;DHT22;35723;51.194;5.112;2022-07-23T11:50:51;25.50;96.00
49829;DHT22;35723;51.194;5.112;2022-07-23T11:53:25;25.30;96.30
49829;DHT22;35723;51.194;5.112;2022-07-23T11:55:51;25.30;96.40
49829;DHT22;35723;51.194;5.112;2022-07-23T11:58:17;25.00;96.20
49829;DHT22;35723;51.194;5.112;2022-07-23T12:00:43;25.40;95.70
49829;DHT22;35723;51.194;5.112;2022-07-23T12:03:09;25.20;96.80
49829;DHT22;35723;51.194;5.112;2022-07-23T12:05:36;25.30;96.50
49829;DHT22;35723;51.194;5.112;2022-07-23T12:08:04;25.30;96.00
49829;DHT22;35723;51.194;5.112;2022-07-23T12:10:36;25.40;96.60
49829;DHT22;35723;51.194;5.112;2022-07-23T12:13:08;25.50;96.30
49829;DHT22;35723;51.194;5.112;2022-07-23T12:15:47;25.50;96.30
49829;DHT22;35723;51.194;5.112;2022-07-23T12:18:21;26.10;96.60
49829;DHT22;35723;51.194;5.112;2022-07-23T12:20:50;25.90;95.20
49829;DHT22;35723;51.194;5.112;2022-07-23T12:23:18;25.70;95.60
49829;DHT22;35723;51.194;5.112;2022-07-23T12:25:45;25.70;95.60
49829;DHT22;35723;51.194;5.112;2022-07-23T12:28:13;25.90;95.80
49829;DHT22;35723;51.194;5.112;2022-07-23T12:30:40;25.90;95.10
49829;DHT22;35723;51.194;5.112;2022-07-23T12:33:08;26.30;94.40
49829;DHT22;35723;51.194;5.112;2022-07-23T12:35:43;26.70;94.60
49829;DHT22;35723;51.194;5.112;2022-07-23T12:38:18;26.40;94.70
49829;DHT22;35723;51.194;5.112;2022-07-23T12:40:53;26.00;94.90
49829;DHT22;35723;51.194;5.112;2022-07-23T12:43:40;25.20;95.10
49829;DHT22;35723;51.194;5.112;2022-07-23T12:46:09;25.30;96.20
49829;DHT22;35723;51.194;5.112;2022-07-23T12:48:40;26.00;95.50
49829;DHT22;35723;51.194;5.112;2022-07-23T12:51:19;26.60;94.70
49829;DHT22;35723;51.194;5.112;2022-07-23T12:53:47;27.10;94.50
49829;DHT22;35723;51.194;5.112;2022-07-23T12:56:26;27.50;94.10
49829;DHT22;35723;51.194;5.112;2022-07-23T12:58:55;27.40;93.80
49829;DHT22;35723;51.194;5.112;2022-07-23T13:04:12;26.60;93.10
49829;DHT22;35723;51.194;5.112;2022-07-23T13:06:47;26.30;94.00
49829;DHT22;35723;51.194;5.112;2022-07-23T13:09:18;26.50;93.80
49829;DHT22;35723;51.194;5.112;2022-07-23T13:11:45;26.30;93.90
49829;DHT22;35723;51.194;5.112;2022-07-23T13:14:11;26.20;93.60
49829;DHT22;35723;51.194;5.112;2022-07-23T13:16:38;26.60;94.90
49829;DHT22;35723;51.194;5.112;2022-07-23T13:19:04;27.00;93.50
49829;DHT22;35723;51.194;5.112;2022-07-23T13:21:30;27.10;94.00
49829;DHT22;35723;51.194;5.112;2022-07-23T13:23:56;27.20;93.10
49829;DHT22;35723;51.194;5.112;2022-07-23T13:26:22;27.20;92.40
49829;DHT22;35723;51.194;5.112;2022-07-23T13:28:48;27.00;93.00
49829;DHT22;35723;51.194;5.112;2022-07-23T13:31:16;26.70;93.30
49829;DHT22;35723;51.194;5.112;2022-07-23T13:33:42;26.50;93.00
49829;DHT22;35723;51.194;5.112;2022-07-23T13:36:08;26.20;93.50
49829;DHT22;35723;51.194;5.112;2022-07-23T13:38:34;25.70;93.20
49829;DHT22;35723;51.194;5.112;2022-07-23T13:41:00;25.70;93.70
49829;DHT22;35723;51.194;5.112;2022-07-23T13:43:26;26.00;93.40
49829;DHT22;35723;51.194;5.112;2022-07-23T13:45:52;26.30;93.70
49829;DHT22;35723;51.194;5.112;2022-07-23T13:48:19;26.50;94.10
49829;DHT22;35723;51.194;5.112;2022-07-23T13:50:46;27.00;94.00
49829;DHT22;35723;51.194;5.112;2022-07-23T13:53:20;27.50;93.30
49829;DHT22;35723;51.194;5.112;2022-07-23T13:55:47;27.60;92.50
49829;DHT22;35723;51.194;5.112;2022-07-23T13:58:13;27.90;91.70
49829;DHT22;35723;51.194;5.112;2022-07-23T14:00:41;28.30;90.90
49829;DHT22;35723;51.194;5.112;2022-07-23T14:03:08;28.50;90.60
49829;DHT22;35723;51.194;5.112;2022-07-23T14:05:33;28.50;92.10
49829;DHT22;35723;51.194;5.112;2022-07-23T14:07:59;28.40;90.70
49829;DHT22;35723;51.194;5.112;2022-07-23T14:10:25;28.10;90.90
49829;DHT22;35723;51.194;5.112;2022-07-23T14:12:52;28.20;90.50
49829;DHT22;35723;51.194;5.112;2022-07-23T14:15:26;28.50;90.30
49829;DHT22;35723;51.194;5.112;2022-07-23T14:17:53;28.20;90.10
49829;DHT22;35723;51.194;5.112;2022-07-23T14:20:19;28.20;90.60
49829;DHT22;35723;51.194;5.112;2022-07-23T14:22:44;28.20;90.30
49829;DHT22;35723;51.194;5.112;2022-07-23T14:25:11;28.20;90.70
49829;DHT22;35723;51.194;5.112;2022-07-23T14:27:37;28.50;90.70
49829;DHT22;35723;51.194;5.112;2022-07-23T14:30:05;28.70;90.30
49829;DHT22;35723;51.194;5.112;2022-07-23T14:32:31;28.60;88.90
49829;DHT22;35723;51.194;5.112;2022-07-23T14:34:56;28.10;90.20
49829;DHT22;35723;51.194;5.112;2022-07-23T14:37:22;28.00;90.20
49829;DHT22;35723;51.194;5.112;2022-07-23T14:39:48;27.90;91.40
49829;DHT22;35723;51.194;5.112;2022-07-23T14:42:14;27.80;90.70
49829;DHT22;35723;51.194;5.112;2022-07-23T14:44:39;27.50;91.50
49829;DHT22;35723;51.194;5.112;2022-07-23T14:47:07;26.80;91.90
49829;DHT22;35723;51.194;5.112;2022-07-23T14:49:33;26.40;93.00
49829;DHT22;35723;51.194;5.112;2022-07-23T14:51:59;26.90;92.60
49829;DHT22;35723;51.194;5.112;2022-07-23T14:54:26;27.20;92.20
49829;DHT22;35723;51.194;5.112;2022-07-23T14:56:56;26.70;92.20
49829;DHT22;35723;51.194;5.112;2022-07-23T14:59:22;26.90;93.00
49829;DHT22;35723;51.194;5.112;2022-07-23T15:01:48;27.20;91.90
49829;DHT22;35723;51.194;5.112;2022-07-23T15:04:15;27.40;91.70
49829;DHT22;35723;51.194;5.112;2022-07-23T15:06:41;27.20;91.10
49829;DHT22;35723;51.194;5.112;2022-07-23T15:09:07;27.50;91.70
49829;DHT22;35723;51.194;5.112;2022-07-23T15:11:32;28.00;91.20
49829;DHT22;35723;51.194;5.112;2022-07-23T15:14:03;27.90;90.90
49829;DHT22;35723;51.194;5.112;2022-07-23T15:16:29;27.80;91.40
49829;DHT22;35723;51.194;5.112;2022-07-23T15:18:55;27.70;91.30
49829;DHT22;35723;51.194;5.112;2022-07-23T15:21:21;27.50;91.20
49829;DHT22;35723;51.194;5.112;2022-07-23T15:23:47;27.70;91.30
49829;DHT22;35723;51.194;5.112;2022-07-23T15:26:13;27.80;91.30
49829;DHT22;35723;51.194;5.112;2022-07-23T15:28:40;27.50;91.50
49829;DHT22;35723;51.194;5.112;2022-07-23T15:31:06;27.10;91.40
49829;DHT22;35723;51.194;5.112;2022-07-23T15:33:33;27.10;90.80
49829;DHT22;35723;51.194;5.112;2022-07-23T15:35:58;27.10;91.10
49829;DHT22;35723;51.194;5.112;2022-07-23T15:38:26;27.00;90.70
49829;DHT22;35723;51.194;5.112;2022-07-23T15:40:53;26.80;92.30
49829;DHT22;35723;51.194;5.112;2022-07-23T15:43:19;26.70;91.80
49829;DHT22;35723;51.194;5.112;2022-07-23T15:45:45;26.30;91.50
49829;DHT22;35723;51.194;5.112;2022-07-23T15:48:12;26.40;92.40
49829;DHT22;35723;51.194;5.112;2022-07-23T15:50:37;26.30;92.00
49829;DHT22;35723;51.194;5.112;2022-07-23T15:53:03;26.10;91.70
49829;DHT22;35723;51.194;5.112;2022-07-23T15:55:29;26.10;92.20
49829;DHT22;35723;51.194;5.112;2022-07-23T15:57:54;26.10;92.20
49829;DHT22;35723;51.194;5.112;2022-07-23T16:00:20;26.30;92.80
49829;DHT22;35723;51.194;5.112;2022-07-23T16:02:46;26.30;92.30
49829;DHT22;35723;51.194;5.112;2022-07-23T16:05:11;26.60;92.40
49829;DHT22;35723;51.194;5.112;2022-07-23T16:07:37;26.70;91.90
49829;DHT22;35723;51.194;5.112;2022-07-23T16:10:05;26.80;91.70
49829;DHT22;35723;51.194;5.112;2022-07-23T16:12:31;27.00;91.80
49829;DHT22;35723;51.194;5.112;2022-07-23T16:14:57;27.00;91.20